Time;durP1;ratioP1;P1;durP2;ratioP2;P2;SDS_P1;SDS_P2;PMS_P1;PMS_P2;Temp;Humidity;BMP_temperature;BMP_pressure;BME280_temperature;BME280_humidity;BME280_pressure;Samples;Min_cycle;Max_cycle;Signal;HPM_P1;HPM_P2
2022/11/21 00:01:26;;;;;;;6.53;2.83;;;7.30;99.90;;;;;;5073832;28;20717;-76
2022/11/21 00:04:11;;;;;;;4.75;3.10;;;7.40;99.90;;;;;;5060342;28;20806;-75
2022/11/21 00:06:58;;;;;;;8.38;2.40;;;7.40;99.90;;;;;;5072231;28;20306;-76
2022/11/21 00:09:44;;;;;;;5.78;2.38;;;7.50;99.90;;;;;;5065978;28;20564;-76
2022/11/21 00:12:29;;;;;;;5.28;2.20;;;7.60;99.90;;;;;;5060943;28;20207;-76
2022/11/21 00:15:15;;;;;;;4.65;2.15;;;7.60;99.90;;;;;;5064932;28;20212;-75
2022/11/21 00:18:02;;;;;;;5.38;2.20;;;7.50;99.90;;;;;;5056595;28;20236;-76
2022/11/21 00:20:48;;;;;;;4.40;2.10;;;7.40;99.90;;;;;;5061976;28;20197;-75
2022/11/21 00:23:35;;;;;;;8.93;2.63;;;7.40;99.90;;;;;;5066566;28;20212;-75
2022/11/21 00:26:20;;;;;;;6.57;3.45;;;7.40;99.90;;;;;;5069106;28;20512;-77
2022/11/21 00:29:06;;;;;;;7.70;2.35;;;7.40;99.90;;;;;;5071546;28;20204;-77
2022/11/21 00:31:52;;;;;;;6.00;2.57;;;7.50;99.90;;;;;;5067060;28;20589;-77
2022/11/21 00:34:37;;;;;;;7.97;2.35;;;7.40;99.90;;;;;;5075492;28;20430;-77
2022/11/21 00:37:23;;;;;;;7.72;3.22;;;7.50;99.90;;;;;;5067006;28;20378;-77
2022/11/21 00:40:11;;;;;;;6.50;2.50;;;7.50;99.90;;;;;;5065977;28;20690;-75
2022/11/21 00:42:57;;;;;;;8.50;2.77;;;7.50;99.90;;;;;;5068972;28;20712;-76
2022/11/21 00:45:42;;;;;;;6.80;2.60;;;7.40;99.90;;;;;;5084534;28;20463;-76
2022/11/21 00:48:28;;;;;;;15.77;3.80;;;7.40;99.90;;;;;;5073786;28;20522;-76
2022/11/21 00:51:14;;;;;;;6.97;3.13;;;7.40;99.90;;;;;;5069580;28;20491;-76
2022/11/21 00:54:00;;;;;;;7.47;3.00;;;7.40;99.90;;;;;;5077882;28;20610;-77
2022/11/21 00:56:47;;;;;;;9.75;3.10;;;7.50;99.90;;;;;;5083930;28;20810;-77
2022/11/21 00:59:33;;;;;;;6.50;2.97;;;7.50;99.90;;;;;;5070219;28;20238;-75
2022/11/21 01:02:18;;;;;;;3.45;2.50;;;7.50;99.90;;;;;;5088889;28;20326;-76
2022/11/21 01:05:04;;;;;;;4.70;2.33;;;7.50;99.90;;;;;;5067685;28;20200;-77
2022/11/21 01:07:50;;;;;;;8.90;2.73;;;7.50;99.90;;;;;;5070293;28;20632;-77
2022/11/21 01:10:36;;;;;;;8.20;3.63;;;7.50;99.90;;;;;;5078328;28;20437;-77
2022/11/21 01:13:23;;;;;;;7.15;3.03;;;7.40;99.90;;;;;;5082804;28;20434;-77
2022/11/21 01:16:11;;;;;;;4.35;2.30;;;7.50;99.90;;;;;;5071693;28;20228;-76
2022/11/21 01:18:57;;;;;;;5.95;2.38;;;7.50;99.90;;;;;;5065701;28;20413;-77
2022/11/21 01:21:42;;;;;;;7.35;2.20;;;7.50;99.90;;;;;;5082095;28;20692;-77
2022/11/21 01:24:28;;;;;;;11.82;2.42;;;7.50;99.90;;;;;;5078356;28;20633;-77
2022/11/21 01:27:14;;;;;;;4.85;2.20;;;7.60;99.90;;;;;;5080056;28;20222;-76
2022/11/21 01:30:00;;;;;;;6.38;2.50;;;7.50;99.90;;;;;;5070694;28;20200;-77
2022/11/21 01:32:48;;;;;;;5.65;2.25;;;7.50;99.90;;;;;;5064935;28;20200;-76
2022/11/21 01:35:34;;;;;;;5.80;2.38;;;7.40;99.90;;;;;;5072821;28;20274;-76
2022/11/21 01:38:19;;;;;;;6.38;2.00;;;7.40;99.90;;;;;;5072109;28;20568;-75
2022/11/21 01:41:05;;;;;;;8.25;3.15;;;7.40;99.90;;;;;;5071330;28;20226;-77
2022/11/21 01:43:51;;;;;;;9.18;2.58;;;7.30;99.90;;;;;;5075840;28;20204;-76
2022/11/21 01:46:38;;;;;;;10.30;2.30;;;7.30;99.90;;;;;;5077967;28;20231;-76
2022/11/21 01:49:26;;;;;;;10.50;2.47;;;7.30;99.90;;;;;;5066518;28;20566;-76
2022/11/21 01:52:15;;;;;;;10.55;2.63;;;7.20;99.90;;;;;;5066931;28;20983;-77
2022/11/21 01:55:05;;;;;;;7.82;2.28;;;7.20;99.90;;;;;;5084165;28;20321;-77
2022/11/21 01:57:51;;;;;;;4.47;1.70;;;7.20;99.90;;;;;;5067209;28;20231;-76
2022/11/21 02:00:40;;;;;;;6.18;2.03;;;7.20;99.90;;;;;;5068985;28;20405;-75
2022/11/21 02:03:31;;;;;;;7.28;1.80;;;7.30;99.90;;;;;;5076534;28;20207;-77
2022/11/21 02:06:17;;;;;;;10.52;2.78;;;7.20;99.90;;;;;;5071136;28;20354;-77
2022/11/21 02:09:03;;;;;;;11.90;2.00;;;7.30;99.90;;;;;;5063420;28;20200;-77
2022/11/21 02:11:52;;;;;;;5.90;2.50;;;7.30;99.90;;;;;;5068130;28;20208;-76
2022/11/21 02:14:40;;;;;;;13.82;2.60;;;7.40;99.90;;;;;;5070437;28;20212;-77
2022/11/21 02:17:28;;;;;;;5.30;2.40;;;7.40;99.90;;;;;;5068659;28;20364;-75
2022/11/21 02:20:17;;;;;;;11.63;2.20;;;7.40;99.90;;;;;;5075802;28;20246;-77
2022/11/21 02:23:09;;;;;;;5.60;2.30;;;7.50;99.90;;;;;;5075405;28;20200;-77
2022/11/21 02:25:56;;;;;;;5.65;2.17;;;7.40;99.90;;;;;;5068615;28;20203;-76
2022/11/21 02:28:42;;;;;;;5.40;2.03;;;7.50;99.90;;;;;;5064455;28;20346;-77
2022/11/21 02:31:27;;;;;;;13.80;2.60;;;7.50;99.90;;;;;;5077926;28;20203;-76
2022/11/21 02:34:13;;;;;;;9.48;2.60;;;7.50;99.90;;;;;;5068976;28;20211;-76
2022/11/21 02:36:59;;;;;;;8.18;2.55;;;7.40;99.90;;;;;;5068509;28;20339;-76
2022/11/21 02:39:47;;;;;;;5.88;2.33;;;7.40;99.90;;;;;;5070066;28;20696;-77
2022/11/21 02:42:38;;;;;;;12.18;2.75;;;7.30;99.90;;;;;;5072932;28;20569;-76
2022/11/21 02:45:30;;;;;;;5.13;1.98;;;7.30;99.90;;;;;;5077713;28;20205;-77
2022/11/21 02:48:16;;;;;;;4.68;2.08;;;7.30;99.90;;;;;;5064731;28;20220;-77
2022/11/21 02:51:01;;;;;;;6.30;1.95;;;7.30;99.90;;;;;;5075324;28;20203;-77
2022/11/21 02:53:47;;;;;;;11.15;2.28;;;7.30;99.90;;;;;;5074765;28;20207;-77
2022/11/21 02:56:32;;;;;;;5.75;2.63;;;7.40;99.90;;;;;;5067073;28;20220;-76
2022/11/21 02:59:20;;;;;;;7.20;1.40;;;7.30;99.90;;;;;;5073560;28;20258;-76
2022/11/21 03:02:05;;;;;;;5.40;2.42;;;7.30;99.90;;;;;;5069740;28;20319;-76
2022/11/21 03:04:51;;;;;;;9.43;2.08;;;7.30;99.90;;;;;;5069609;28;20297;-75
2022/11/21 03:07:37;;;;;;;3.40;1.83;;;7.40;99.90;;;;;;5072403;28;20548;-77
2022/11/21 03:10:22;;;;;;;7.75;1.55;;;7.40;99.90;;;;;;5074988;28;20219;-77
2022/11/21 03:13:08;;;;;;;6.15;2.10;;;7.30;99.90;;;;;;5082724;28;20685;-77
2022/11/21 03:15:55;;;;;;;5.53;1.98;;;7.40;99.90;;;;;;5072004;28;20266;-77
2022/11/21 03:18:40;;;;;;;5.68;2.00;;;7.30;99.90;;;;;;5073592;28;20215;-77
2022/11/21 03:21:26;;;;;;;4.70;2.25;;;7.40;99.90;;;;;;5082242;28;20409;-77
2022/11/21 03:24:12;;;;;;;9.13;2.47;;;7.40;99.90;;;;;;5074051;28;20334;-76
2022/11/21 03:26:57;;;;;;;5.38;1.60;;;7.40;99.90;;;;;;5067067;28;20228;-76
2022/11/21 03:29:42;;;;;;;9.07;1.83;;;7.40;99.90;;;;;;5076269;28;20212;-76
2022/11/21 03:32:29;;;;;;;5.35;1.98;;;7.40;99.90;;;;;;5079268;28;20208;-77
2022/11/21 03:35:15;;;;;;;2.97;1.58;;;7.50;99.90;;;;;;5076180;28;20223;-77
2022/11/21 03:38:00;;;;;;;3.55;1.67;;;7.50;99.90;;;;;;5063315;28;20415;-77
2022/11/21 03:40:46;;;;;;;5.53;2.00;;;7.60;99.90;;;;;;5085933;28;20681;-76
2022/11/21 03:43:32;;;;;;;5.82;2.20;;;7.60;99.90;;;;;;5078006;28;20231;-77
2022/11/21 03:46:17;;;;;;;4.38;1.90;;;7.50;99.90;;;;;;5073800;28;20231;-76
2022/11/21 03:49:04;;;;;;;5.40;2.30;;;7.50;99.90;;;;;;5073683;28;20586;-75
2022/11/21 03:51:50;;;;;;;4.13;1.98;;;7.50;99.90;;;;;;5059815;28;20208;-77
2022/11/21 03:54:35;;;;;;;3.53;1.95;;;7.50;99.90;;;;;;5067318;28;20546;-77
2022/11/21 03:57:21;;;;;;;7.60;2.55;;;7.50;99.90;;;;;;5063311;28;20278;-77
2022/11/21 04:00:08;;;;;;;4.20;2.20;;;7.60;99.90;;;;;;5074651;28;20287;-77
2022/11/21 04:02:53;;;;;;;4.88;2.15;;;7.60;99.90;;;;;;5074261;28;20568;-77
2022/11/21 04:05:40;;;;;;;7.40;2.83;;;7.60;99.90;;;;;;5071178;28;20208;-77
2022/11/21 04:08:26;;;;;;;8.57;2.03;;;7.60;99.90;;;;;;5079708;28;20229;-77
2022/11/21 04:11:12;;;;;;;8.70;2.80;;;7.60;99.90;;;;;;5072067;28;20601;-76
2022/11/21 04:13:57;;;;;;;5.70;3.35;;;7.60;99.90;;;;;;5068857;28;20422;-76
2022/11/21 04:16:43;;;;;;;4.90;2.65;;;7.70;99.90;;;;;;5067603;28;20232;-76
2022/11/21 04:19:29;;;;;;;10.65;3.30;;;7.70;99.90;;;;;;5075949;28;20207;-75
2022/11/21 04:22:16;;;;;;;7.15;3.17;;;7.70;99.90;;;;;;5079827;28;20265;-77
2022/11/21 04:25:01;;;;;;;14.57;3.88;;;7.80;99.90;;;;;;5066471;28;20204;-76
2022/11/21 04:27:47;;;;;;;6.22;2.80;;;7.80;99.90;;;;;;5067976;28;21195;-77
2022/11/21 04:30:34;;;;;;;4.47;3.10;;;7.80;99.90;;;;;;5073048;28;20200;-77
2022/11/21 04:33:20;;;;;;;7.40;3.95;;;7.70;99.90;;;;;;5070963;28;20200;-75
2022/11/21 04:36:05;;;;;;;5.72;3.53;;;7.70;99.90;;;;;;5060735;28;20254;-76
2022/11/21 04:38:52;;;;;;;7.38;4.03;;;7.70;99.90;;;;;;5073025;28;20561;-76
2022/11/21 04:41:38;;;;;;;13.70;6.75;;;7.70;99.90;;;;;;5067170;28;20208;-76
2022/11/21 04:44:24;;;;;;;12.90;6.97;;;7.70;99.90;;;;;;5065893;28;21097;-77
2022/11/21 04:47:09;;;;;;;14.27;5.07;;;7.80;99.90;;;;;;5060852;28;21011;-76
2022/11/21 04:49:55;;;;;;;15.40;8.13;;;7.80;99.90;;;;;;5073636;28;20239;-77
2022/11/21 04:52:41;;;;;;;34.57;12.60;;;7.80;99.90;;;;;;5076314;28;20473;-77
2022/11/21 04:55:31;;;;;;;80.32;30.05;;;7.70;99.90;;;;;;5067361;28;20447;-76
2022/11/21 04:58:16;;;;;;;12.27;5.55;;;7.80;99.90;;;;;;5069713;28;20196;-76
2022/11/21 05:01:07;;;;;;;22.00;6.95;;;7.60;99.90;;;;;;5070306;28;20328;-77
2022/11/21 05:03:53;;;;;;;12.65;5.97;;;7.60;99.90;;;;;;5072330;28;20204;-76
2022/11/21 05:06:38;;;;;;;23.27;11.60;;;7.70;99.90;;;;;;5061367;28;20824;-77
2022/11/21 05:09:24;;;;;;;24.02;9.98;;;7.60;99.90;;;;;;5071611;28;20269;-77
2022/11/21 05:15:14;;;;;;;8.57;4.30;;;7.60;99.90;;;;;;5067511;28;20278;-75
2022/11/21 05:18:00;;;;;;;7.67;3.83;;;7.70;99.90;;;;;;5064053;28;20828;-76
2022/11/21 05:20:45;;;;;;;7.63;3.70;;;7.70;99.90;;;;;;5065533;28;20496;-76
2022/11/21 05:23:31;;;;;;;7.88;3.08;;;7.70;99.90;;;;;;5061514;28;20212;-75
2022/11/21 05:26:16;;;;;;;6.28;3.08;;;7.70;99.90;;;;;;5067331;28;20224;-74
2022/11/21 05:29:04;;;;;;;3.88;2.30;;;7.70;99.90;;;;;;5070229;28;20200;-77
2022/11/21 05:31:49;;;;;;;5.80;2.95;;;7.70;99.90;;;;;;5063355;28;20200;-75
2022/11/21 05:34:35;;;;;;;4.13;2.40;;;7.60;99.90;;;;;;5065049;28;20200;-74
2022/11/21 05:37:21;;;;;;;6.10;2.97;;;7.60;99.90;;;;;;5066598;28;20467;-77
2022/11/21 05:40:08;;;;;;;7.63;2.85;;;7.70;99.90;;;;;;5067482;28;20971;-76
2022/11/21 05:45:58;;;;;;;4.77;2.90;;;7.60;99.90;;;;;;5061665;28;20226;-75
2022/11/21 05:48:44;;;;;;;6.33;3.50;;;7.70;99.90;;;;;;5075887;28;20471;-76
2022/11/21 05:51:30;;;;;;;6.43;2.85;;;7.70;99.90;;;;;;5069642;28;20449;-77
2022/11/21 05:54:16;;;;;;;4.13;2.37;;;7.70;99.90;;;;;;5069799;28;20196;-77
2022/11/21 05:57:01;;;;;;;6.00;1.90;;;7.70;99.90;;;;;;5062144;28;20497;-76
2022/11/21 05:59:47;;;;;;;6.05;2.35;;;7.70;99.90;;;;;;5068886;28;20420;-76
2022/11/21 06:05:37;;;;;;;6.63;2.90;;;7.60;99.90;;;;;;5057815;28;20472;-76
2022/11/21 06:08:23;;;;;;;6.57;2.80;;;7.70;99.90;;;;;;5064592;28;20224;-76
2022/11/21 06:11:10;;;;;;;3.38;2.08;;;7.70;99.90;;;;;;5074682;28;20307;-77
2022/11/21 06:13:55;;;;;;;7.00;2.55;;;7.60;99.90;;;;;;5075037;28;20662;-77
2022/11/21 06:16:41;;;;;;;8.75;2.45;;;7.70;99.90;;;;;;5073016;22;20224;-76
2022/11/21 06:19:28;;;;;;;3.13;2.30;;;7.60;99.90;;;;;;5076755;28;20552;-76
2022/11/21 06:22:14;;;;;;;9.38;2.97;;;7.60;99.90;;;;;;5078949;28;20204;-76
2022/11/21 06:24:59;;;;;;;9.13;3.00;;;7.50;99.90;;;;;;5061424;28;20228;-76
2022/11/21 06:27:45;;;;;;;7.22;3.17;;;7.60;99.90;;;;;;5073066;28;20214;-76
2022/11/21 06:30:31;;;;;;;5.32;2.15;;;7.60;99.90;;;;;;5078851;28;20212;-76
2022/11/21 06:33:16;;;;;;;4.15;3.25;;;7.60;99.90;;;;;;5075095;28;20228;-76
2022/11/21 06:36:05;;;;;;;6.18;3.70;;;7.50;99.90;;;;;;5060638;28;20302;-76
2022/11/21 06:38:50;;;;;;;6.38;2.67;;;7.50;99.90;;;;;;5063456;28;20204;-76
2022/11/21 06:41:36;;;;;;;12.98;3.60;;;7.60;99.90;;;;;;5067920;28;20207;-76
2022/11/21 06:44:21;;;;;;;4.70;3.25;;;7.60;99.90;;;;;;5066817;28;20442;-76
2022/11/21 06:47:07;;;;;;;5.63;2.83;;;7.60;99.90;;;;;;5062095;28;20212;-76
2022/11/21 06:49:52;;;;;;;6.88;3.00;;;7.70;99.90;;;;;;5070197;28;20196;-76
2022/11/21 06:52:40;;;;;;;4.53;2.80;;;7.70;99.90;;;;;;5072227;28;20234;-76
2022/11/21 06:55:26;;;;;;;6.43;3.27;;;7.80;99.90;;;;;;5060331;28;20653;-76
2022/11/21 06:58:12;;;;;;;5.40;3.10;;;7.90;99.90;;;;;;5068404;28;20960;-76
2022/11/21 07:00:58;;;;;;;5.43;3.73;;;7.90;99.90;;;;;;5073726;28;20203;-76
2022/11/21 07:03:43;;;;;;;6.68;4.05;;;7.90;99.90;;;;;;5064976;28;20439;-77
2022/11/21 07:06:29;;;;;;;4.15;3.38;;;7.90;99.90;;;;;;5069764;28;20227;-76
2022/11/21 07:09:16;;;;;;;8.53;4.13;;;7.90;99.90;;;;;;5064651;28;20753;-76
2022/11/21 07:15:02;;;;;;;12.70;6.97;;;7.70;99.90;;;;;;5059899;28;20282;-77
2022/11/21 07:17:47;;;;;;;19.65;9.48;;;7.80;99.90;;;;;;5073311;28;20204;-77
2022/11/21 07:20:33;;;;;;;11.38;5.88;;;7.80;99.90;;;;;;5081219;28;20204;-76
2022/11/21 07:23:19;;;;;;;15.95;5.20;;;7.80;99.90;;;;;;5068870;28;20331;-76
2022/11/21 07:26:08;;;;;;;13.50;5.53;;;7.90;99.90;;;;;;5074875;28;20310;-76
2022/11/21 07:28:53;;;;;;;7.17;4.80;;;7.90;99.90;;;;;;5063461;28;20779;-76
2022/11/21 07:31:38;;;;;;;10.10;5.57;;;8.00;99.90;;;;;;5063718;28;20459;-76
2022/11/21 07:34:24;;;;;;;9.03;4.80;;;8.00;99.90;;;;;;5066938;28;20424;-76
2022/11/21 07:37:09;;;;;;;11.48;3.58;;;8.00;99.90;;;;;;5067251;28;20974;-76
2022/11/21 07:39:55;;;;;;;8.57;3.42;;;8.00;99.90;;;;;;5070063;28;20563;-77
2022/11/21 07:42:42;;;;;;;7.50;3.70;;;7.90;99.90;;;;;;5069486;28;20297;-77
2022/11/21 07:45:28;;;;;;;6.55;3.00;;;8.00;99.90;;;;;;5066254;28;20837;-76
2022/11/21 07:48:13;;;;;;;7.00;3.83;;;7.90;99.90;;;;;;5072673;28;20220;-76
2022/11/21 07:50:59;;;;;;;5.38;3.38;;;7.90;99.90;;;;;;5062449;28;20431;-77
2022/11/21 07:53:45;;;;;;;6.65;2.90;;;7.90;99.90;;;;;;5064969;28;20200;-76
2022/11/21 07:56:30;;;;;;;7.50;2.90;;;7.90;99.90;;;;;;5069256;28;20223;-76
2022/11/21 07:59:18;;;;;;;7.90;3.40;;;7.80;99.90;;;;;;5081018;28;20273;-76
2022/11/21 08:02:04;;;;;;;6.30;2.70;;;7.80;99.90;;;;;;5077447;28;20197;-76
2022/11/21 08:04:50;;;;;;;10.90;4.00;;;7.90;99.90;;;;;;5064096;28;20338;-77
2022/11/21 08:07:35;;;;;;;16.20;9.10;;;7.90;99.90;;;;;;5063386;28;20445;-76
2022/11/21 08:10:21;;;;;;;13.07;6.03;;;7.80;99.90;;;;;;5065212;28;20466;-77
2022/11/21 08:13:07;;;;;;;9.37;3.00;;;7.90;99.90;;;;;;5065755;28;20278;-77
2022/11/21 08:15:54;;;;;;;9.90;3.63;;;7.90;99.90;;;;;;5074090;28;20478;-77
2022/11/21 08:18:40;;;;;;;11.65;5.35;;;7.90;99.90;;;;;;5073555;28;20199;-77
2022/11/21 08:21:26;;;;;;;8.30;3.83;;;7.90;99.90;;;;;;5065844;28;20581;-77
2022/11/21 08:24:13;;;;;;;7.63;3.50;;;7.90;99.90;;;;;;5066687;28;20451;-77
2022/11/21 08:27:00;;;;;;;8.60;3.47;;;7.90;99.90;;;;;;5064813;28;20283;-76
2022/11/21 08:29:45;;;;;;;5.43;3.00;;;8.00;99.90;;;;;;5072730;28;20219;-76
2022/11/21 08:32:32;;;;;;;8.23;3.38;;;8.00;99.90;;;;;;5060324;28;20529;-77
2022/11/21 08:35:18;;;;;;;6.23;3.07;;;8.00;99.90;;;;;;5054358;28;20224;-77
2022/11/21 08:38:04;;;;;;;11.52;3.40;;;8.00;99.90;;;;;;5057098;28;20905;-77
2022/11/21 08:42:01;;;;;;;12.57;5.75;;;8.00;99.90;;;;;;5071995;28;20274;-77
2022/11/21 08:43:55;;;;;;;11.52;6.20;;;8.00;99.90;;;;;;5065632;28;20207;-77
2022/11/21 08:46:41;;;;;;;45.75;21.77;;;8.00;99.90;;;;;;5073647;28;20289;-77
2022/11/21 08:49:28;;;;;;;18.48;7.55;;;8.00;99.90;;;;;;5069452;28;20270;-77
2022/11/21 08:52:14;;;;;;;38.22;13.68;;;8.00;99.90;;;;;;5066756;28;20224;-77
2022/11/21 08:54:59;;;;;;;14.13;6.00;;;7.90;99.90;;;;;;5069500;28;20220;-76
2022/11/21 08:57:45;;;;;;;10.03;4.20;;;7.90;99.90;;;;;;5065380;28;20200;-76
2022/11/21 09:00:30;;;;;;;10.63;4.23;;;7.80;99.90;;;;;;5060565;28;20496;-76
2022/11/21 09:03:16;;;;;;;9.80;3.03;;;7.80;99.90;;;;;;5062307;28;21007;-77
2022/11/21 09:06:03;;;;;;;6.65;3.00;;;7.70;99.90;;;;;;5075310;28;20223;-77
2022/11/21 09:08:49;;;;;;;7.78;3.00;;;7.70;99.90;;;;;;5068259;28;20228;-77
2022/11/21 09:11:35;;;;;;;7.95;2.80;;;7.80;99.90;;;;;;5072173;28;20202;-77
2022/11/21 09:20:33;;;;;;;8.98;3.65;;;7.90;99.90;;;;;;5063757;28;20195;-77
2022/11/21 09:23:20;;;;;;;6.88;2.40;;;8.00;99.90;;;;;;5069962;28;20311;-77
2022/11/21 09:26:06;;;;;;;7.30;2.83;;;8.10;99.90;;;;;;5068204;28;20223;-77
2022/11/21 09:28:52;;;;;;;7.82;2.85;;;8.20;99.90;;;;;;5067795;28;20205;-77
2022/11/21 09:31:37;;;;;;;6.40;2.83;;;8.20;99.90;;;;;;5067071;28;20283;-77
2022/11/21 09:34:23;;;;;;;6.97;2.67;;;8.20;99.90;;;;;;5063275;28;20735;-77
2022/11/21 09:37:08;;;;;;;7.77;2.73;;;8.30;99.90;;;;;;5074940;28;20330;-77
2022/11/21 09:39:55;;;;;;;9.13;3.95;;;8.30;99.90;;;;;;5066064;28;20530;-77
2022/11/21 09:43:00;;;;;;;6.18;2.60;;;8.40;99.90;;;;;;5071134;28;20303;-77
2022/11/21 09:45:48;;;;;;;6.90;2.80;;;8.50;99.90;;;;;;5071895;28;20242;-77
2022/11/21 09:48:38;;;;;;;6.22;2.70;;;8.60;99.90;;;;;;5064388;28;20630;-77
2022/11/21 09:51:25;;;;;;;7.47;3.00;;;8.70;99.90;;;;;;5063653;28;20208;-77
2022/11/21 09:54:19;;;;;;;8.90;3.00;;;8.70;99.90;;;;;;5065598;28;20205;-76
2022/11/21 09:57:06;;;;;;;7.00;2.73;;;8.70;99.90;;;;;;5066100;28;20286;-77
2022/11/21 09:59:52;;;;;;;4.40;2.20;;;8.60;99.90;;;;;;5056082;28;20455;-77
2022/11/21 10:02:39;;;;;;;6.70;3.17;;;8.80;99.90;;;;;;5061511;28;20565;-78
2022/11/21 10:05:36;;;;;;;7.85;2.72;;;8.90;99.90;;;;;;5069194;28;20481;-76
2022/11/21 10:08:30;;;;;;;7.38;2.60;;;9.10;99.90;;;;;;5069948;28;20232;-77
2022/11/21 10:11:24;;;;;;;6.40;2.40;;;9.10;99.90;;;;;;5074087;28;20246;-77
2022/11/21 10:14:19;;;;;;;4.73;2.33;;;9.20;99.90;;;;;;5071438;28;20472;-77
2022/11/21 10:17:15;;;;;;;6.90;2.57;;;9.40;99.90;;;;;;5066481;28;20446;-77
2022/11/21 10:20:18;;;;;;;8.40;2.70;;;9.60;99.90;;;;;;5061128;28;20522;-76
2022/11/21 10:23:32;;;;;;;7.10;2.63;;;9.70;99.90;;;;;;5066954;28;20524;-76
2022/11/21 10:26:36;;;;;;;5.10;2.40;;;9.80;99.90;;;;;;5075489;28;20460;-76
2022/11/21 10:29:26;;;;;;;4.67;2.27;;;9.60;99.90;;;;;;5065587;28;21058;-77
2022/11/21 10:32:20;;;;;;;8.03;2.80;;;9.60;99.90;;;;;;5074043;28;20449;-77
2022/11/21 10:35:15;;;;;;;8.73;2.47;;;9.60;99.90;;;;;;5056324;28;20572;-77
2022/11/21 10:38:02;;;;;;;11.90;2.23;;;9.80;99.90;;;;;;5062100;28;20478;-77
2022/11/21 10:40:52;;;;;;;8.43;2.60;;;10.10;99.90;;;;;;5077699;28;20487;-76
2022/11/21 10:46:56;;;;;;;6.03;2.17;;;10.20;99.90;;;;;;5078491;28;20473;-76
2022/11/21 10:49:43;;;;;;;3.53;1.80;;;10.20;99.90;;;;;;5071065;28;21103;-76
2022/11/21 10:52:34;;;;;;;6.50;1.90;;;10.00;99.90;;;;;;5083691;28;20433;-77
2022/11/21 10:55:19;;;;;;;14.83;1.80;;;9.90;99.90;;;;;;5085533;28;20527;-77
2022/11/21 10:58:18;;;;;;;5.23;2.03;;;9.80;99.90;;;;;;5072586;28;20441;-78
2022/11/21 11:01:04;;;;;;;5.40;1.73;;;9.80;99.90;;;;;;5066906;28;20422;-76
2022/11/21 11:04:05;;;;;;;4.37;2.00;;;9.60;99.90;;;;;;5063278;28;20557;-77
2022/11/21 11:06:51;;;;;;;2.80;1.40;;;9.40;99.90;;;;;;5079138;28;20441;-76
2022/11/21 11:09:37;;;;;;;7.30;2.07;;;9.50;99.90;;;;;;5069997;28;20985;-76
2022/11/21 11:15:30;;;;;;;8.73;2.20;;;9.40;99.90;;;;;;5071822;28;20477;-76
2022/11/21 11:18:16;;;;;;;6.87;2.30;;;9.50;99.90;;;;;;5070157;28;20442;-76
2022/11/21 11:21:24;;;;;;;4.63;1.83;;;9.50;99.90;;;;;;5078303;28;20885;-76
2022/11/21 11:24:23;;;;;;;8.83;2.43;;;9.50;99.90;;;;;;5060705;28;20550;-77
2022/11/21 11:27:09;;;;;;;6.10;2.23;;;9.50;99.90;;;;;;5073821;28;21014;-76
2022/11/21 11:29:54;;;;;;;6.87;1.73;;;9.60;99.90;;;;;;5071228;28;20457;-77
2022/11/21 11:32:40;;;;;;;4.20;1.40;;;9.70;99.90;;;;;;5077270;28;20492;-77
2022/11/21 11:35:33;;;;;;;6.57;2.00;;;9.80;99.90;;;;;;5078850;28;20425;-77
2022/11/21 11:38:24;;;;;;;8.90;1.93;;;9.80;99.90;;;;;;5073721;28;20455;-77
2022/11/21 11:41:17;;;;;;;5.60;1.95;;;9.80;99.90;;;;;;5077353;28;20427;-77
2022/11/21 11:47:31;;;;;;;13.00;2.70;;;9.90;99.90;;;;;;5065158;28;20502;-77
2022/11/21 11:50:19;;;;;;;4.00;1.90;;;9.90;99.90;;;;;;5074962;28;20583;-77
2022/11/21 11:53:11;;;;;;;5.03;2.53;;;9.90;99.90;;;;;;5077322;28;20491;-78
2022/11/21 11:56:02;;;;;;;11.17;2.83;;;9.90;99.90;;;;;;5077466;28;20454;-77
2022/11/21 11:58:51;;;;;;;8.57;2.03;;;9.90;99.90;;;;;;5067502;28;20588;-77
2022/11/21 12:01:41;;;;;;;6.40;1.83;;;10.00;99.90;;;;;;5079584;28;20488;-77
2022/11/21 12:04:30;;;;;;;9.70;2.30;;;10.00;99.90;;;;;;5076513;28;20476;-77
2022/11/21 12:07:20;;;;;;;6.90;1.87;;;10.20;99.90;;;;;;5077079;28;20573;-77
2022/11/21 12:10:15;;;;;;;7.37;2.03;;;10.50;99.90;;;;;;5069566;28;20871;-77
2022/11/21 12:13:10;;;;;;;6.40;1.70;;;10.60;99.90;;;;;;5080620;28;20393;-77
2022/11/21 12:16:01;;;;;;;6.93;1.53;;;10.80;99.90;;;;;;5096674;22;20509;-75
2022/11/21 12:18:55;;;;;;;6.10;2.30;;;11.00;99.90;;;;;;5067214;28;20442;-75
2022/11/21 12:21:41;;;;;;;8.00;3.00;;;11.20;99.90;;;;;;5064170;28;20465;-75
2022/11/21 12:24:26;;;;;;;6.43;1.63;;;11.30;99.90;;;;;;5076787;28;20527;-75
2022/11/21 12:27:24;;;;;;;7.87;1.67;;;11.40;99.90;;;;;;5060363;28;20529;-75
2022/11/21 12:30:25;;;;;;;7.10;2.60;;;11.70;99.90;;;;;;5056674;28;20471;-75
2022/11/21 12:33:19;;;;;;;9.30;1.70;;;12.00;99.90;;;;;;5058623;28;20443;-74
2022/11/21 12:36:24;;;;;;;5.03;1.73;;;12.20;99.90;;;;;;5056679;28;20864;-76
2022/11/21 12:39:26;;;;;;;9.10;2.00;;;12.40;98.90;;;;;;5045655;28;20505;-76
2022/11/21 12:45:28;;;;;;;6.57;1.73;;;13.00;90.30;;;;;;5053143;28;20490;-75
2022/11/21 12:55:18;;;;;;;11.43;2.40;;;12.60;86.80;;;;;;5046659;28;20591;-74
2022/11/21 12:58:09;;;;;;;5.40;1.97;;;12.60;88.00;;;;;;5044749;28;20451;-74
2022/11/21 13:01:19;;;;;;;14.23;4.37;;;12.90;86.20;;;;;;5045791;28;20522;-76
2022/11/21 13:04:06;;;;;;;10.93;4.23;;;12.90;86.20;;;;;;5044361;28;20590;-76
2022/11/21 13:06:53;;;;;;;6.30;3.17;;;13.00;87.10;;;;;;5039464;28;20479;-76
2022/11/21 13:09:41;;;;;;;7.23;2.47;;;12.90;89.00;;;;;;5047081;28;20475;-76
2022/11/21 13:12:37;;;;;;;13.97;3.83;;;12.40;88.30;;;;;;5048793;28;20557;-76
2022/11/21 13:15:29;;;;;;;14.20;3.57;;;12.00;91.30;;;;;;5050900;28;20609;-76
2022/11/21 13:18:22;;;;;;;5.40;1.97;;;11.70;96.70;;;;;;5042991;28;20586;-76
2022/11/21 13:21:40;;;;;;;8.27;1.80;;;11.70;99.90;;;;;;5044477;28;20988;-76
2022/11/21 13:24:55;;;;;;;6.60;2.07;;;11.60;99.90;;;;;;5043937;28;20502;-76
2022/11/21 13:27:42;;;;;;;6.30;1.90;;;11.40;99.90;;;;;;5040002;28;20451;-77
2022/11/21 13:30:28;;;;;;;8.20;3.20;;;11.10;99.90;;;;;;5047915;28;21015;-76
2022/11/21 13:33:48;;;;;;;5.57;2.50;;;10.90;99.90;;;;;;5049539;28;20490;-76
2022/11/21 13:36:39;;;;;;;6.80;2.40;;;10.80;99.90;;;;;;5042399;28;21107;-76
2022/11/21 13:39:30;;;;;;;8.57;3.40;;;10.80;99.90;;;;;;5045094;28;20450;-76
2022/11/21 13:45:42;;;;;;;7.70;2.10;;;10.60;99.90;;;;;;5036926;28;20459;-76
2022/11/21 13:49:06;;;;;;;8.60;3.57;;;10.60;99.90;;;;;;5039132;28;20434;-76
2022/11/21 13:51:55;;;;;;;6.50;2.43;;;10.60;99.90;;;;;;5050114;28;20958;-76
2022/11/21 13:55:08;;;;;;;5.87;1.80;;;10.60;99.90;;;;;;5047380;28;20880;-75
2022/11/21 13:58:06;;;;;;;10.57;4.60;;;10.50;99.90;;;;;;5041598;28;20422;-77
2022/11/21 14:01:18;;;;;;;6.10;2.00;;;10.50;99.90;;;;;;5035131;28;20873;-75
2022/11/21 14:04:39;;;;;;;9.67;2.80;;;10.10;99.90;;;;;;5039430;28;20586;-76
2022/11/21 14:07:30;;;;;;;9.70;3.10;;;10.20;99.90;;;;;;5018598;28;20440;-76
2022/11/21 14:10:32;;;;;;;16.23;8.40;;;10.30;99.90;;;;;;5052547;28;20553;-76
2022/11/21 14:13:23;;;;;;;12.23;5.57;;;10.20;99.90;;;;;;5055761;28;20512;-76
2022/11/21 14:16:23;;;;;;;15.50;4.93;;;10.20;99.90;;;;;;5037395;28;20565;-76
2022/11/21 14:19:13;;;;;;;11.77;2.83;;;10.30;99.90;;;;;;5050888;28;20455;-76
2022/11/21 14:22:01;;;;;;;13.53;6.57;;;10.40;99.90;;;;;;5037090;28;20460;-75
2022/11/21 14:24:48;;;;;;;9.60;3.33;;;10.40;99.90;;;;;;5039783;28;20443;-76
2022/11/21 14:27:38;;;;;;;8.40;2.17;;;10.40;99.90;;;;;;5034653;28;20442;-76
2022/11/21 14:30:36;;;;;;;9.23;2.17;;;10.20;99.90;;;;;;5036642;28;20846;-75
2022/11/21 14:33:32;;;;;;;9.80;2.00;;;10.30;99.90;;;;;;5059583;28;20570;-76
2022/11/21 14:36:20;;;;;;;9.87;3.03;;;10.20;99.90;;;;;;5047968;28;20452;-76
2022/11/21 14:39:09;;;;;;;14.13;5.87;;;10.20;99.90;;;;;;5047799;28;20527;-75
2022/11/21 14:41:57;;;;;;;23.67;8.68;;;10.20;99.90;;;;;;5055716;28;20474;-76
2022/11/21 14:44:43;;;;;;;28.60;8.95;;;10.00;99.90;;;;;;5050455;28;20235;-75
2022/11/21 14:47:29;;;;;;;15.48;8.10;;;9.80;99.90;;;;;;5059328;28;20241;-76
2022/11/21 14:50:23;;;;;;;9.73;3.67;;;9.60;99.90;;;;;;5050353;28;20241;-76
2022/11/21 14:53:12;;;;;;;20.20;7.83;;;9.50;99.90;;;;;;5049161;28;20201;-76
2022/11/21 14:55:58;;;;;;;9.67;5.27;;;9.40;99.90;;;;;;5040401;28;20566;-76
2022/11/21 14:58:45;;;;;;;8.93;2.60;;;9.40;99.90;;;;;;5048215;28;20419;-76
2022/11/21 15:01:32;;;;;;;14.27;2.43;;;9.10;99.90;;;;;;5042086;28;20439;-76
2022/11/21 15:04:29;;;;;;;10.60;2.50;;;9.00;99.90;;;;;;5043239;28;20540;-76
2022/11/21 15:07:21;;;;;;;7.67;1.80;;;8.80;99.90;;;;;;5048802;28;20471;-76
2022/11/21 15:10:07;;;;;;;3.97;1.73;;;8.90;99.90;;;;;;5045693;28;21039;-76
2022/11/21 15:12:56;;;;;;;10.77;2.25;;;8.80;99.90;;;;;;5045930;28;20454;-76
2022/11/21 15:15:46;;;;;;;5.17;1.73;;;8.70;99.90;;;;;;5037317;28;20237;-76
2022/11/21 15:18:32;;;;;;;6.70;2.07;;;8.60;99.90;;;;;;5044689;28;20451;-76
2022/11/21 15:21:17;;;;;;;7.13;2.00;;;8.50;99.90;;;;;;5060574;28;20482;-75
2022/11/21 15:24:17;;;;;;;10.07;2.20;;;8.50;99.90;;;;;;5062419;28;20200;-76
2022/11/21 15:27:23;;;;;;;14.77;2.50;;;8.30;99.90;;;;;;5046747;28;20542;-76